Terminal Aerodrome Forecast
Issued by NWS Sterling, VA

Home | Current Version | Previous Version | Text Only | Print | Product List | Glossary On
Versions: 1 2 3 4 5 6 7 8 9 10 11 12 13 14 15 16 17 18 19 20 21 22 23 24 25 26 27 28
000
FTUS41 KLWX 181100
TAFIAD
TAF
KIAD 181126Z 1812/1918 30011KT P6SM BKN050
     FM181400 30011G19KT P6SM SCT050
     FM182300 31007KT P6SM SCT100
     FM190200 31006KT P6SM BKN110
     FM190800 30006KT P6SM SCT090
     FM191500 31010KT P6SM FEW040=

USA.gov is the U.S. government's official web portal to all federal, state and local government web resources and services.